sensor_id;sensor_type;location;lat;lon;timestamp;temperature;humidity
14099;DHT22;7126;48.458;7.930;2023-04-21T00:02:01;6.70;99.90
14099;DHT22;7126;48.458;7.930;2023-04-21T00:04:27;6.60;99.90
14099;DHT22;7126;48.458;7.930;2023-04-21T00:06:53;6.60;99.90
14099;DHT22;7126;48.458;7.930;2023-04-21T00:09:20;6.60;99.90
14099;DHT22;7126;48.458;7.930;2023-04-21T00:11:46;6.60;99.90
14099;DHT22;7126;48.458;7.930;2023-04-21T00:14:11;6.60;99.90
14099;DHT22;7126;48.458;7.930;2023-04-21T00:16:37;6.60;99.90
14099;DHT22;7126;48.458;7.930;2023-04-21T00:19:02;6.50;99.90
14099;DHT22;7126;48.458;7.930;2023-04-21T00:21:32;6.50;99.90
14099;DHT22;7126;48.458;7.930;2023-04-21T00:23:57;6.40;99.90
14099;DHT22;7126;48.458;7.930;2023-04-21T00:26:23;6.40;99.90
14099;DHT22;7126;48.458;7.930;2023-04-21T00:28:49;6.40;99.90
14099;DHT22;7126;48.458;7.930;2023-04-21T00:31:14;6.30;99.90
14099;DHT22;7126;48.458;7.930;2023-04-21T00:33:40;6.20;99.90
14099;DHT22;7126;48.458;7.930;2023-04-21T00:36:06;6.20;99.90
14099;DHT22;7126;48.458;7.930;2023-04-21T00:38:31;6.20;99.90
14099;DHT22;7126;48.458;7.930;2023-04-21T00:40:57;6.20;99.90
14099;DHT22;7126;48.458;7.930;2023-04-21T00:43:22;6.20;99.90
14099;DHT22;7126;48.458;7.930;2023-04-21T00:45:50;6.20;99.90
14099;DHT22;7126;48.458;7.930;2023-04-21T00:48:16;6.20;99.90
14099;DHT22;7126;48.458;7.930;2023-04-21T00:50:42;6.20;99.90
14099;DHT22;7126;48.458;7.930;2023-04-21T00:53:10;6.30;99.90
14099;DHT22;7126;48.458;7.930;2023-04-21T00:55:36;6.40;99.90
14099;DHT22;7126;48.458;7.930;2023-04-21T00:58:02;6.50;99.90
14099;DHT22;7126;48.458;7.930;2023-04-21T01:00:29;6.40;99.90
14099;DHT22;7126;48.458;7.930;2023-04-21T01:02:54;6.30;99.90
14099;DHT22;7126;48.458;7.930;2023-04-21T01:05:21;6.20;99.90
14099;DHT22;7126;48.458;7.930;2023-04-21T01:07:46;6.20;99.90
14099;DHT22;7126;48.458;7.930;2023-04-21T01:10:13;6.30;99.90
14099;DHT22;7126;48.458;7.930;2023-04-21T01:12:44;6.10;99.90
14099;DHT22;7126;48.458;7.930;2023-04-21T01:15:14;6.10;99.90
14099;DHT22;7126;48.458;7.930;2023-04-21T01:17:40;6.00;99.90
14099;DHT22;7126;48.458;7.930;2023-04-21T01:20:08;5.90;99.90
14099;DHT22;7126;48.458;7.930;2023-04-21T01:22:39;5.90;99.90
14099;DHT22;7126;48.458;7.930;2023-04-21T01:25:06;5.90;99.90
14099;DHT22;7126;48.458;7.930;2023-04-21T01:27:33;5.90;99.90
14099;DHT22;7126;48.458;7.930;2023-04-21T01:29:58;5.90;99.90
14099;DHT22;7126;48.458;7.930;2023-04-21T01:32:27;5.90;99.90
14099;DHT22;7126;48.458;7.930;2023-04-21T01:34:54;5.80;99.90
14099;DHT22;7126;48.458;7.930;2023-04-21T01:37:24;5.80;99.90
14099;DHT22;7126;48.458;7.930;2023-04-21T01:39:53;5.80;99.90
14099;DHT22;7126;48.458;7.930;2023-04-21T01:42:21;5.80;99.90
14099;DHT22;7126;48.458;7.930;2023-04-21T01:44:47;5.80;99.90
14099;DHT22;7126;48.458;7.930;2023-04-21T01:47:14;5.70;99.90
14099;DHT22;7126;48.458;7.930;2023-04-21T01:49:40;5.60;99.90
14099;DHT22;7126;48.458;7.930;2023-04-21T01:52:06;5.60;99.90
14099;DHT22;7126;48.458;7.930;2023-04-21T01:54:32;5.70;99.90
14099;DHT22;7126;48.458;7.930;2023-04-21T01:56:57;5.70;99.90
14099;DHT22;7126;48.458;7.930;2023-04-21T01:59:23;5.60;99.90
14099;DHT22;7126;48.458;7.930;2023-04-21T02:01:48;5.60;99.90
14099;DHT22;7126;48.458;7.930;2023-04-21T02:04:14;5.60;99.90
14099;DHT22;7126;48.458;7.930;2023-04-21T02:06:40;5.60;99.90
14099;DHT22;7126;48.458;7.930;2023-04-21T02:09:05;5.60;99.90
14099;DHT22;7126;48.458;7.930;2023-04-21T02:11:31;5.50;99.90
14099;DHT22;7126;48.458;7.930;2023-04-21T02:13:57;5.50;99.90
14099;DHT22;7126;48.458;7.930;2023-04-21T02:16:22;5.50;99.90
14099;DHT22;7126;48.458;7.930;2023-04-21T02:18:52;5.60;99.90
14099;DHT22;7126;48.458;7.930;2023-04-21T02:21:18;5.60;99.90
14099;DHT22;7126;48.458;7.930;2023-04-21T02:23:45;5.60;99.90
14099;DHT22;7126;48.458;7.930;2023-04-21T02:26:10;5.60;99.90
14099;DHT22;7126;48.458;7.930;2023-04-21T02:28:36;5.60;99.90
14099;DHT22;7126;48.458;7.930;2023-04-21T02:31:01;5.50;99.90
14099;DHT22;7126;48.458;7.930;2023-04-21T02:33:27;5.50;99.90
14099;DHT22;7126;48.458;7.930;2023-04-21T02:35:52;5.40;99.90
14099;DHT22;7126;48.458;7.930;2023-04-21T02:38:18;5.30;99.90
14099;DHT22;7126;48.458;7.930;2023-04-21T02:40:43;5.40;99.90
14099;DHT22;7126;48.458;7.930;2023-04-21T02:43:09;5.40;99.90
14099;DHT22;7126;48.458;7.930;2023-04-21T02:45:36;5.40;99.90
14099;DHT22;7126;48.458;7.930;2023-04-21T02:48:01;5.40;99.90
14099;DHT22;7126;48.458;7.930;2023-04-21T02:50:27;5.40;99.90
14099;DHT22;7126;48.458;7.930;2023-04-21T02:52:52;5.40;99.90
14099;DHT22;7126;48.458;7.930;2023-04-21T02:55:18;5.50;99.90
14099;DHT22;7126;48.458;7.930;2023-04-21T02:57:43;5.40;99.90
14099;DHT22;7126;48.458;7.930;2023-04-21T03:00:09;5.50;99.90
14099;DHT22;7126;48.458;7.930;2023-04-21T03:02:38;5.40;99.90
14099;DHT22;7126;48.458;7.930;2023-04-21T03:05:04;5.30;99.90
14099;DHT22;7126;48.458;7.930;2023-04-21T03:07:31;5.20;99.90
14099;DHT22;7126;48.458;7.930;2023-04-21T03:09:56;5.20;99.90
14099;DHT22;7126;48.458;7.930;2023-04-21T03:12:22;5.20;99.90
14099;DHT22;7126;48.458;7.930;2023-04-21T03:14:47;5.20;99.90
14099;DHT22;7126;48.458;7.930;2023-04-21T03:17:13;5.20;99.90
14099;DHT22;7126;48.458;7.930;2023-04-21T03:19:38;5.20;99.90
14099;DHT22;7126;48.458;7.930;2023-04-21T03:22:05;5.20;99.90
14099;DHT22;7126;48.458;7.930;2023-04-21T03:24:31;5.20;99.90
14099;DHT22;7126;48.458;7.930;2023-04-21T03:26:56;5.20;99.90
14099;DHT22;7126;48.458;7.930;2023-04-21T03:29:22;5.20;99.90
14099;DHT22;7126;48.458;7.930;2023-04-21T03:31:48;5.10;99.90
14099;DHT22;7126;48.458;7.930;2023-04-21T03:34:14;5.10;99.90
14099;DHT22;7126;48.458;7.930;2023-04-21T03:36:39;5.10;99.90
14099;DHT22;7126;48.458;7.930;2023-04-21T03:39:05;5.10;99.90
14099;DHT22;7126;48.458;7.930;2023-04-21T03:41:32;5.10;99.90
14099;DHT22;7126;48.458;7.930;2023-04-21T03:43:58;5.20;99.90
14099;DHT22;7126;48.458;7.930;2023-04-21T03:46:23;5.20;99.90
14099;DHT22;7126;48.458;7.930;2023-04-21T03:48:49;5.30;99.90
14099;DHT22;7126;48.458;7.930;2023-04-21T03:51:15;5.40;99.90
14099;DHT22;7126;48.458;7.930;2023-04-21T03:53:41;5.40;99.90
14099;DHT22;7126;48.458;7.930;2023-04-21T03:56:07;5.30;99.90
14099;DHT22;7126;48.458;7.930;2023-04-21T03:58:33;5.30;99.90
14099;DHT22;7126;48.458;7.930;2023-04-21T04:00:59;5.20;99.90
14099;DHT22;7126;48.458;7.930;2023-04-21T04:03:25;5.10;99.90
14099;DHT22;7126;48.458;7.930;2023-04-21T04:05:51;5.10;99.90
14099;DHT22;7126;48.458;7.930;2023-04-21T04:08:16;5.10;99.90
14099;DHT22;7126;48.458;7.930;2023-04-21T04:10:42;5.00;99.90
14099;DHT22;7126;48.458;7.930;2023-04-21T04:13:07;5.00;99.90
14099;DHT22;7126;48.458;7.930;2023-04-21T04:15:33;5.00;99.90
14099;DHT22;7126;48.458;7.930;2023-04-21T04:17:58;5.00;99.90
14099;DHT22;7126;48.458;7.930;2023-04-21T04:20:24;5.00;99.90
14099;DHT22;7126;48.458;7.930;2023-04-21T04:22:50;4.90;99.90
14099;DHT22;7126;48.458;7.930;2023-04-21T04:25:15;4.80;99.90
14099;DHT22;7126;48.458;7.930;2023-04-21T04:27:44;4.80;99.90
14099;DHT22;7126;48.458;7.930;2023-04-21T04:30:11;4.90;99.90
14099;DHT22;7126;48.458;7.930;2023-04-21T04:32:37;4.80;99.90
14099;DHT22;7126;48.458;7.930;2023-04-21T04:35:08;4.70;99.90
14099;DHT22;7126;48.458;7.930;2023-04-21T04:37:37;4.70;99.90
14099;DHT22;7126;48.458;7.930;2023-04-21T04:40:04;4.70;99.90
14099;DHT22;7126;48.458;7.930;2023-04-21T04:42:31;4.70;99.90
14099;DHT22;7126;48.458;7.930;2023-04-21T04:44:57;4.90;99.90
14099;DHT22;7126;48.458;7.930;2023-04-21T04:47:24;4.90;99.90
14099;DHT22;7126;48.458;7.930;2023-04-21T04:49:49;4.90;99.90
14099;DHT22;7126;48.458;7.930;2023-04-21T04:52:15;4.90;99.90
14099;DHT22;7126;48.458;7.930;2023-04-21T04:54:41;4.90;99.90
14099;DHT22;7126;48.458;7.930;2023-04-21T04:57:06;4.90;99.90
14099;DHT22;7126;48.458;7.930;2023-04-21T04:59:32;4.90;99.90
14099;DHT22;7126;48.458;7.930;2023-04-21T05:01:58;4.90;99.90
14099;DHT22;7126;48.458;7.930;2023-04-21T05:04:23;5.00;99.90
14099;DHT22;7126;48.458;7.930;2023-04-21T05:06:49;5.00;99.90
14099;DHT22;7126;48.458;7.930;2023-04-21T05:09:15;4.90;99.90
14099;DHT22;7126;48.458;7.930;2023-04-21T05:11:40;4.90;99.90
14099;DHT22;7126;48.458;7.930;2023-04-21T05:14:06;4.80;99.90
14099;DHT22;7126;48.458;7.930;2023-04-21T05:16:32;4.80;99.90
14099;DHT22;7126;48.458;7.930;2023-04-21T05:19:02;4.70;99.90
14099;DHT22;7126;48.458;7.930;2023-04-21T05:21:28;4.70;99.90
14099;DHT22;7126;48.458;7.930;2023-04-21T05:23:55;4.60;99.90
14099;DHT22;7126;48.458;7.930;2023-04-21T05:26:21;4.60;99.90
14099;DHT22;7126;48.458;7.930;2023-04-21T05:28:47;4.60;99.90
14099;DHT22;7126;48.458;7.930;2023-04-21T05:31:12;4.60;99.90
14099;DHT22;7126;48.458;7.930;2023-04-21T05:33:38;4.60;99.90
14099;DHT22;7126;48.458;7.930;2023-04-21T05:36:07;4.70;99.90
14099;DHT22;7126;48.458;7.930;2023-04-21T05:38:36;4.70;99.90
14099;DHT22;7126;48.458;7.930;2023-04-21T05:41:03;4.80;99.90
14099;DHT22;7126;48.458;7.930;2023-04-21T05:43:28;4.80;99.90
14099;DHT22;7126;48.458;7.930;2023-04-21T05:45:54;4.80;99.90
14099;DHT22;7126;48.458;7.930;2023-04-21T05:48:20;4.80;99.90
14099;DHT22;7126;48.458;7.930;2023-04-21T05:50:45;4.90;99.90
14099;DHT22;7126;48.458;7.930;2023-04-21T05:53:11;5.00;99.90
14099;DHT22;7126;48.458;7.930;2023-04-21T05:55:37;5.10;99.90
14099;DHT22;7126;48.458;7.930;2023-04-21T05:58:02;5.20;99.90
14099;DHT22;7126;48.458;7.930;2023-04-21T06:00:29;5.20;99.90
14099;DHT22;7126;48.458;7.930;2023-04-21T06:02:54;5.30;99.90
14099;DHT22;7126;48.458;7.930;2023-04-21T06:05:20;5.40;99.90
14099;DHT22;7126;48.458;7.930;2023-04-21T06:07:46;5.50;99.90
14099;DHT22;7126;48.458;7.930;2023-04-21T06:10:13;5.50;99.90
14099;DHT22;7126;48.458;7.930;2023-04-21T06:12:39;5.50;99.90
14099;DHT22;7126;48.458;7.930;2023-04-21T06:15:05;5.60;99.90
14099;DHT22;7126;48.458;7.930;2023-04-21T06:17:31;5.70;99.90
14099;DHT22;7126;48.458;7.930;2023-04-21T06:19:56;5.80;99.90
14099;DHT22;7126;48.458;7.930;2023-04-21T06:22:22;5.80;99.90
14099;DHT22;7126;48.458;7.930;2023-04-21T06:24:48;5.90;99.90
14099;DHT22;7126;48.458;7.930;2023-04-21T06:27:13;6.00;99.90
14099;DHT22;7126;48.458;7.930;2023-04-21T06:29:39;6.10;99.90
14099;DHT22;7126;48.458;7.930;2023-04-21T06:32:07;6.20;99.90
14099;DHT22;7126;48.458;7.930;2023-04-21T06:34:32;6.30;99.90
14099;DHT22;7126;48.458;7.930;2023-04-21T06:36:58;6.30;99.90
14099;DHT22;7126;48.458;7.930;2023-04-21T06:39:23;6.40;99.90
14099;DHT22;7126;48.458;7.930;2023-04-21T06:41:49;6.50;99.90
14099;DHT22;7126;48.458;7.930;2023-04-21T06:44:15;6.60;99.90
14099;DHT22;7126;48.458;7.930;2023-04-21T06:46:41;6.70;99.90
14099;DHT22;7126;48.458;7.930;2023-04-21T06:49:07;6.80;99.90
14099;DHT22;7126;48.458;7.930;2023-04-21T06:51:33;6.90;99.90
14099;DHT22;7126;48.458;7.930;2023-04-21T06:53:59;6.80;99.90
14099;DHT22;7126;48.458;7.930;2023-04-21T06:56:29;6.90;99.90
14099;DHT22;7126;48.458;7.930;2023-04-21T06:58:55;7.00;99.90
14099;DHT22;7126;48.458;7.930;2023-04-21T07:01:21;7.10;99.90
14099;DHT22;7126;48.458;7.930;2023-04-21T07:03:49;7.10;99.90
14099;DHT22;7126;48.458;7.930;2023-04-21T07:06:15;7.20;99.90
14099;DHT22;7126;48.458;7.930;2023-04-21T07:08:40;7.30;99.90
14099;DHT22;7126;48.458;7.930;2023-04-21T07:11:06;7.50;99.90
14099;DHT22;7126;48.458;7.930;2023-04-21T07:13:32;7.60;99.90
14099;DHT22;7126;48.458;7.930;2023-04-21T07:15:57;7.70;99.90
14099;DHT22;7126;48.458;7.930;2023-04-21T07:18:23;7.80;99.90
14099;DHT22;7126;48.458;7.930;2023-04-21T07:20:49;8.00;99.90
14099;DHT22;7126;48.458;7.930;2023-04-21T07:23:15;8.20;99.90
14099;DHT22;7126;48.458;7.930;2023-04-21T07:25:40;8.30;99.90
14099;DHT22;7126;48.458;7.930;2023-04-21T07:28:06;8.40;99.90
14099;DHT22;7126;48.458;7.930;2023-04-21T07:30:32;8.50;99.90
14099;DHT22;7126;48.458;7.930;2023-04-21T07:32:57;8.60;99.90
14099;DHT22;7126;48.458;7.930;2023-04-21T07:35:24;8.80;99.90
14099;DHT22;7126;48.458;7.930;2023-04-21T07:37:50;8.90;99.90
14099;DHT22;7126;48.458;7.930;2023-04-21T07:40:15;9.00;99.90
14099;DHT22;7126;48.458;7.930;2023-04-21T07:42:41;9.10;99.90
14099;DHT22;7126;48.458;7.930;2023-04-21T07:45:07;9.20;99.90
14099;DHT22;7126;48.458;7.930;2023-04-21T07:47:33;9.40;99.90
14099;DHT22;7126;48.458;7.930;2023-04-21T07:49:59;9.50;99.90
14099;DHT22;7126;48.458;7.930;2023-04-21T07:52:24;9.50;99.90
14099;DHT22;7126;48.458;7.930;2023-04-21T07:54:50;9.60;99.90
14099;DHT22;7126;48.458;7.930;2023-04-21T07:57:15;9.70;99.90
14099;DHT22;7126;48.458;7.930;2023-04-21T07:59:41;9.80;99.90
14099;DHT22;7126;48.458;7.930;2023-04-21T08:02:07;9.90;99.90
14099;DHT22;7126;48.458;7.930;2023-04-21T08:04:33;10.00;99.90
14099;DHT22;7126;48.458;7.930;2023-04-21T08:06:58;10.10;99.90
14099;DHT22;7126;48.458;7.930;2023-04-21T08:09:25;10.10;99.90
14099;DHT22;7126;48.458;7.930;2023-04-21T08:11:51;10.20;99.90
14099;DHT22;7126;48.458;7.930;2023-04-21T08:14:16;10.30;99.90
14099;DHT22;7126;48.458;7.930;2023-04-21T08:16:42;10.40;99.90
14099;DHT22;7126;48.458;7.930;2023-04-21T08:19:08;10.50;99.90
14099;DHT22;7126;48.458;7.930;2023-04-21T08:21:34;10.60;99.90
14099;DHT22;7126;48.458;7.930;2023-04-21T08:24:00;10.70;99.90
14099;DHT22;7126;48.458;7.930;2023-04-21T08:26:26;10.80;99.90
14099;DHT22;7126;48.458;7.930;2023-04-21T08:28:54;10.90;99.90
14099;DHT22;7126;48.458;7.930;2023-04-21T08:31:20;11.00;99.90
14099;DHT22;7126;48.458;7.930;2023-04-21T08:33:46;11.10;99.90
14099;DHT22;7126;48.458;7.930;2023-04-21T08:36:12;11.20;99.90
14099;DHT22;7126;48.458;7.930;2023-04-21T08:38:37;11.40;99.90
14099;DHT22;7126;48.458;7.930;2023-04-21T08:41:04;11.60;99.90
14099;DHT22;7126;48.458;7.930;2023-04-21T08:43:30;11.70;99.90
14099;DHT22;7126;48.458;7.930;2023-04-21T08:45:56;11.80;99.90
14099;DHT22;7126;48.458;7.930;2023-04-21T08:48:22;11.90;99.90
14099;DHT22;7126;48.458;7.930;2023-04-21T08:50:50;12.00;99.90
14099;DHT22;7126;48.458;7.930;2023-04-21T08:53:16;12.10;99.90
14099;DHT22;7126;48.458;7.930;2023-04-21T08:55:42;12.20;99.90
14099;DHT22;7126;48.458;7.930;2023-04-21T08:58:08;12.30;99.90
14099;DHT22;7126;48.458;7.930;2023-04-21T09:00:34;12.40;99.90
14099;DHT22;7126;48.458;7.930;2023-04-21T09:03:01;12.50;99.90
14099;DHT22;7126;48.458;7.930;2023-04-21T09:05:31;12.50;99.90
14099;DHT22;7126;48.458;7.930;2023-04-21T09:08:17;12.60;99.90
14099;DHT22;7126;48.458;7.930;2023-04-21T09:10:48;12.70;99.90
14099;DHT22;7126;48.458;7.930;2023-04-21T09:13:14;12.90;99.90
14099;DHT22;7126;48.458;7.930;2023-04-21T09:15:44;13.00;99.90
14099;DHT22;7126;48.458;7.930;2023-04-21T09:20:41;13.30;99.90
14099;DHT22;7126;48.458;7.930;2023-04-21T09:23:08;13.40;99.90
14099;DHT22;7126;48.458;7.930;2023-04-21T09:25:36;13.50;99.90
14099;DHT22;7126;48.458;7.930;2023-04-21T09:28:03;13.60;99.90
14099;DHT22;7126;48.458;7.930;2023-04-21T09:30:34;13.70;99.90
14099;DHT22;7126;48.458;7.930;2023-04-21T09:33:00;13.80;99.90
14099;DHT22;7126;48.458;7.930;2023-04-21T09:35:32;13.90;99.90
14099;DHT22;7126;48.458;7.930;2023-04-21T09:38:00;14.00;99.90
14099;DHT22;7126;48.458;7.930;2023-04-21T09:40:28;14.20;99.90
14099;DHT22;7126;48.458;7.930;2023-04-21T09:42:54;14.30;99.90
14099;DHT22;7126;48.458;7.930;2023-04-21T09:45:19;14.40;99.90
14099;DHT22;7126;48.458;7.930;2023-04-21T09:47:49;14.50;99.90
14099;DHT22;7126;48.458;7.930;2023-04-21T09:50:19;14.60;99.90
14099;DHT22;7126;48.458;7.930;2023-04-21T09:52:48;14.70;99.90
14099;DHT22;7126;48.458;7.930;2023-04-21T09:55:14;14.90;99.90
14099;DHT22;7126;48.458;7.930;2023-04-21T09:57:41;14.90;99.90
14099;DHT22;7126;48.458;7.930;2023-04-21T10:00:10;15.00;99.90
14099;DHT22;7126;48.458;7.930;2023-04-21T10:02:42;15.10;99.90
14099;DHT22;7126;48.458;7.930;2023-04-21T10:05:09;15.20;99.90
14099;DHT22;7126;48.458;7.930;2023-04-21T10:07:35;15.30;99.90
14099;DHT22;7126;48.458;7.930;2023-04-21T10:10:01;15.50;99.90
14099;DHT22;7126;48.458;7.930;2023-04-21T10:12:27;15.60;99.90
14099;DHT22;7126;48.458;7.930;2023-04-21T10:14:54;15.70;99.90
14099;DHT22;7126;48.458;7.930;2023-04-21T10:17:24;15.80;99.90
14099;DHT22;7126;48.458;7.930;2023-04-21T10:19:55;15.80;99.90
14099;DHT22;7126;48.458;7.930;2023-04-21T10:22:31;15.90;99.90
14099;DHT22;7126;48.458;7.930;2023-04-21T10:24:58;16.00;99.90
14099;DHT22;7126;48.458;7.930;2023-04-21T10:27:39;16.20;99.90
14099;DHT22;7126;48.458;7.930;2023-04-21T10:30:22;16.40;99.90
14099;DHT22;7126;48.458;7.930;2023-04-21T10:32:48;16.50;99.90
14099;DHT22;7126;48.458;7.930;2023-04-21T10:35:56;16.60;99.90
14099;DHT22;7126;48.458;7.930;2023-04-21T10:38:54;16.80;99.90
14099;DHT22;7126;48.458;7.930;2023-04-21T10:41:31;16.90;99.90
14099;DHT22;7126;48.458;7.930;2023-04-21T10:44:10;17.10;99.90
14099;DHT22;7126;48.458;7.930;2023-04-21T10:46:40;17.20;99.90
14099;DHT22;7126;48.458;7.930;2023-04-21T10:49:11;17.30;99.90
14099;DHT22;7126;48.458;7.930;2023-04-21T10:55:04;17.70;99.90
14099;DHT22;7126;48.458;7.930;2023-04-21T10:57:31;17.80;99.90
14099;DHT22;7126;48.458;7.930;2023-04-21T10:59:57;17.80;99.90
14099;DHT22;7126;48.458;7.930;2023-04-21T11:02:23;17.90;99.90
14099;DHT22;7126;48.458;7.930;2023-04-21T11:04:53;18.00;99.90
14099;DHT22;7126;48.458;7.930;2023-04-21T11:07:22;18.20;99.90
14099;DHT22;7126;48.458;7.930;2023-04-21T11:12:21;18.30;99.90
14099;DHT22;7126;48.458;7.930;2023-04-21T11:14:47;18.50;99.90
14099;DHT22;7126;48.458;7.930;2023-04-21T11:17:14;18.60;99.90
14099;DHT22;7126;48.458;7.930;2023-04-21T11:19:41;18.80;99.90
14099;DHT22;7126;48.458;7.930;2023-04-21T11:22:09;18.90;99.90
14099;DHT22;7126;48.458;7.930;2023-04-21T11:24:34;19.00;99.90
14099;DHT22;7126;48.458;7.930;2023-04-21T11:27:00;19.20;99.90
14099;DHT22;7126;48.458;7.930;2023-04-21T11:29:26;19.30;99.90
14099;DHT22;7126;48.458;7.930;2023-04-21T11:31:54;19.50;99.90
14099;DHT22;7126;48.458;7.930;2023-04-21T11:34:21;19.60;99.90
14099;DHT22;7126;48.458;7.930;2023-04-21T11:36:47;19.80;99.90
14099;DHT22;7126;48.458;7.930;2023-04-21T11:39:15;19.90;99.90
14099;DHT22;7126;48.458;7.930;2023-04-21T11:41:46;19.90;99.90
14099;DHT22;7126;48.458;7.930;2023-04-21T11:44:13;20.20;99.90
14099;DHT22;7126;48.458;7.930;2023-04-21T11:46:45;20.00;99.90
14099;DHT22;7126;48.458;7.930;2023-04-21T11:49:13;19.80;99.90
14099;DHT22;7126;48.458;7.930;2023-04-21T11:51:40;19.50;99.90
14099;DHT22;7126;48.458;7.930;2023-04-21T11:54:09;19.10;99.90
14099;DHT22;7126;48.458;7.930;2023-04-21T11:56:36;19.00;99.90
14099;DHT22;7126;48.458;7.930;2023-04-21T11:59:08;18.90;99.90
14099;DHT22;7126;48.458;7.930;2023-04-21T12:01:34;18.60;99.90
14099;DHT22;7126;48.458;7.930;2023-04-21T12:04:02;18.50;99.90
14099;DHT22;7126;48.458;7.930;2023-04-21T12:06:28;18.30;99.90
14099;DHT22;7126;48.458;7.930;2023-04-21T12:08:55;18.30;99.90
14099;DHT22;7126;48.458;7.930;2023-04-21T12:11:23;18.40;99.90
14099;DHT22;7126;48.458;7.930;2023-04-21T12:13:49;18.30;99.90
14099;DHT22;7126;48.458;7.930;2023-04-21T12:16:14;18.60;99.90
14099;DHT22;7126;48.458;7.930;2023-04-21T12:18:41;19.10;99.90
14099;DHT22;7126;48.458;7.930;2023-04-21T12:21:07;19.50;99.90
14099;DHT22;7126;48.458;7.930;2023-04-21T12:23:33;19.80;99.90
14099;DHT22;7126;48.458;7.930;2023-04-21T12:25:58;20.10;99.90
14099;DHT22;7126;48.458;7.930;2023-04-21T12:28:25;20.40;99.90
14099;DHT22;7126;48.458;7.930;2023-04-21T12:30:50;20.40;99.90
14099;DHT22;7126;48.458;7.930;2023-04-21T12:33:16;20.40;99.90
14099;DHT22;7126;48.458;7.930;2023-04-21T12:35:42;20.50;99.90
14099;DHT22;7126;48.458;7.930;2023-04-21T12:38:07;20.60;99.90
14099;DHT22;7126;48.458;7.930;2023-04-21T12:40:33;20.70;99.90
14099;DHT22;7126;48.458;7.930;2023-04-21T12:42:59;20.80;99.90
14099;DHT22;7126;48.458;7.930;2023-04-21T12:45:25;20.90;99.90
14099;DHT22;7126;48.458;7.930;2023-04-21T12:47:50;20.90;99.90
14099;DHT22;7126;48.458;7.930;2023-04-21T12:50:16;21.00;99.90
14099;DHT22;7126;48.458;7.930;2023-04-21T12:52:41;20.80;99.90
14099;DHT22;7126;48.458;7.930;2023-04-21T12:55:07;20.70;99.90
14099;DHT22;7126;48.458;7.930;2023-04-21T12:57:33;20.80;99.90
14099;DHT22;7126;48.458;7.930;2023-04-21T12:59:59;20.90;99.90
14099;DHT22;7126;48.458;7.930;2023-04-21T13:02:25;21.00;99.90
14099;DHT22;7126;48.458;7.930;2023-04-21T13:04:50;20.90;99.90
14099;DHT22;7126;48.458;7.930;2023-04-21T13:07:16;20.80;99.90
14099;DHT22;7126;48.458;7.930;2023-04-21T13:09:45;20.60;99.90
14099;DHT22;7126;48.458;7.930;2023-04-21T13:12:11;20.30;99.90
14099;DHT22;7126;48.458;7.930;2023-04-21T13:14:36;20.20;99.90
14099;DHT22;7126;48.458;7.930;2023-04-21T13:17:02;19.90;99.90
14099;DHT22;7126;48.458;7.930;2023-04-21T13:19:27;19.70;99.90
14099;DHT22;7126;48.458;7.930;2023-04-21T13:21:53;19.60;99.90
14099;DHT22;7126;48.458;7.930;2023-04-21T13:24:19;19.40;99.90
14099;DHT22;7126;48.458;7.930;2023-04-21T13:26:45;19.20;99.90
14099;DHT22;7126;48.458;7.930;2023-04-21T13:29:11;19.10;99.90
14099;DHT22;7126;48.458;7.930;2023-04-21T13:31:36;18.80;99.90
14099;DHT22;7126;48.458;7.930;2023-04-21T13:34:02;18.40;99.90
14099;DHT22;7126;48.458;7.930;2023-04-21T13:36:28;18.20;99.90
14099;DHT22;7126;48.458;7.930;2023-04-21T13:38:54;18.00;99.90
14099;DHT22;7126;48.458;7.930;2023-04-21T13:41:20;17.90;99.90
14099;DHT22;7126;48.458;7.930;2023-04-21T13:43:46;17.90;99.90
14099;DHT22;7126;48.458;7.930;2023-04-21T13:46:11;18.00;99.90
14099;DHT22;7126;48.458;7.930;2023-04-21T13:48:39;18.10;99.90
14099;DHT22;7126;48.458;7.930;2023-04-21T13:51:04;18.10;99.90
14099;DHT22;7126;48.458;7.930;2023-04-21T13:53:30;18.00;99.90
14099;DHT22;7126;48.458;7.930;2023-04-21T13:55:56;17.90;99.90
14099;DHT22;7126;48.458;7.930;2023-04-21T13:58:23;17.80;99.90
14099;DHT22;7126;48.458;7.930;2023-04-21T14:00:49;17.80;99.90
14099;DHT22;7126;48.458;7.930;2023-04-21T14:03:15;17.60;99.90
14099;DHT22;7126;48.458;7.930;2023-04-21T14:05:41;17.40;99.90
14099;DHT22;7126;48.458;7.930;2023-04-21T14:08:06;17.30;99.90
14099;DHT22;7126;48.458;7.930;2023-04-21T14:10:32;17.10;99.90
14099;DHT22;7126;48.458;7.930;2023-04-21T14:12:58;17.00;99.90
14099;DHT22;7126;48.458;7.930;2023-04-21T14:15:24;17.00;99.90
14099;DHT22;7126;48.458;7.930;2023-04-21T14:17:51;17.00;99.90
14099;DHT22;7126;48.458;7.930;2023-04-21T14:20:17;16.90;99.90
14099;DHT22;7126;48.458;7.930;2023-04-21T14:22:42;16.80;99.90
14099;DHT22;7126;48.458;7.930;2023-04-21T14:25:08;16.90;99.90
14099;DHT22;7126;48.458;7.930;2023-04-21T14:27:34;16.90;99.90
14099;DHT22;7126;48.458;7.930;2023-04-21T14:29:59;16.90;99.90
14099;DHT22;7126;48.458;7.930;2023-04-21T14:32:25;16.90;99.90
14099;DHT22;7126;48.458;7.930;2023-04-21T14:34:51;16.90;99.90
14099;DHT22;7126;48.458;7.930;2023-04-21T14:37:22;16.90;99.90
14099;DHT22;7126;48.458;7.930;2023-04-21T14:39:48;16.90;99.90
14099;DHT22;7126;48.458;7.930;2023-04-21T14:42:13;17.00;99.90
14099;DHT22;7126;48.458;7.930;2023-04-21T14:44:39;17.10;99.90
14099;DHT22;7126;48.458;7.930;2023-04-21T14:47:05;17.30;99.90
14099;DHT22;7126;48.458;7.930;2023-04-21T14:49:31;17.40;99.90
14099;DHT22;7126;48.458;7.930;2023-04-21T14:51:56;17.40;99.90
14099;DHT22;7126;48.458;7.930;2023-04-21T14:54:22;17.40;99.90
14099;DHT22;7126;48.458;7.930;2023-04-21T14:56:48;17.50;99.90
14099;DHT22;7126;48.458;7.930;2023-04-21T14:59:13;17.40;99.90
14099;DHT22;7126;48.458;7.930;2023-04-21T15:01:39;17.40;99.90
14099;DHT22;7126;48.458;7.930;2023-04-21T15:04:04;17.40;99.90
14099;DHT22;7126;48.458;7.930;2023-04-21T15:06:30;17.40;99.90
14099;DHT22;7126;48.458;7.930;2023-04-21T15:08:56;17.40;99.90
14099;DHT22;7126;48.458;7.930;2023-04-21T15:11:21;17.30;99.90
14099;DHT22;7126;48.458;7.930;2023-04-21T15:13:47;17.10;99.90
14099;DHT22;7126;48.458;7.930;2023-04-21T15:16:13;17.10;99.90
14099;DHT22;7126;48.458;7.930;2023-04-21T15:18:39;17.00;99.90
14099;DHT22;7126;48.458;7.930;2023-04-21T15:21:05;16.90;99.90
14099;DHT22;7126;48.458;7.930;2023-04-21T15:23:30;16.90;99.90
14099;DHT22;7126;48.458;7.930;2023-04-21T15:25:58;16.90;99.90
14099;DHT22;7126;48.458;7.930;2023-04-21T15:28:23;16.90;99.90
14099;DHT22;7126;48.458;7.930;2023-04-21T15:30:49;16.90;99.90
14099;DHT22;7126;48.458;7.930;2023-04-21T15:33:14;16.90;99.90
14099;DHT22;7126;48.458;7.930;2023-04-21T15:35:41;16.90;99.90
14099;DHT22;7126;48.458;7.930;2023-04-21T15:38:07;16.90;99.90
14099;DHT22;7126;48.458;7.930;2023-04-21T15:40:32;16.80;99.90
14099;DHT22;7126;48.458;7.930;2023-04-21T15:42:58;16.80;99.90
14099;DHT22;7126;48.458;7.930;2023-04-21T15:45:24;16.80;99.90
14099;DHT22;7126;48.458;7.930;2023-04-21T15:47:49;16.70;99.90
14099;DHT22;7126;48.458;7.930;2023-04-21T15:50:15;16.70;99.90
14099;DHT22;7126;48.458;7.930;2023-04-21T15:52:40;16.70;99.90
14099;DHT22;7126;48.458;7.930;2023-04-21T15:55:11;16.70;99.90
14099;DHT22;7126;48.458;7.930;2023-04-21T15:57:37;16.60;99.90
14099;DHT22;7126;48.458;7.930;2023-04-21T16:00:03;16.60;99.90